Time;durP1;ratioP1;P1;durP2;ratioP2;P2;SDS_P1;SDS_P2;PMS_P1;PMS_P2;Temp;Humidity;BMP_temperature;BMP_pressure;BME280_temperature;BME280_humidity;BME280_pressure;Samples;Min_cycle;Max_cycle;Signal;HPM_P1;HPM_P2
2022/12/24 00:00:04;;;;;;;122.05;56.22;;;;;;;;;;5055652;28;20100;-62
2022/12/24 00:02:33;;;;;;;127.15;56.78;;;;;;;;;;5055659;28;20057;-62
2022/12/24 00:05:01;;;;;;;128.27;56.78;;;;;;;;;;5055525;28;20503;-62
2022/12/24 00:07:29;;;;;;;123.38;56.25;;;;;;;;;;5055531;28;20045;-62
2022/12/24 00:09:56;;;;;;;125.57;56.67;;;;;;;;;;5053985;28;20079;-62
2022/12/24 00:12:24;;;;;;;126.63;58.92;;;;;;;;;;5055248;28;20057;-62
2022/12/24 00:14:51;;;;;;;129.02;59.17;;;;;;;;;;5055505;28;20041;-62
2022/12/24 00:17:18;;;;;;;134.93;59.85;;;;;;;;;;5055436;28;20048;-63
2022/12/24 00:19:46;;;;;;;128.90;59.67;;;;;;;;;;5055345;28;20037;-63
2022/12/24 00:22:14;;;;;;;122.45;58.17;;;;;;;;;;5055423;28;20071;-63
2022/12/24 00:24:41;;;;;;;130.52;61.17;;;;;;;;;;5055269;28;20041;-62
2022/12/24 00:27:09;;;;;;;135.40;60.53;;;;;;;;;;5055227;28;20094;-63
2022/12/24 00:29:36;;;;;;;128.57;58.45;;;;;;;;;;5037220;28;20175;-62
2022/12/24 00:32:06;;;;;;;130.55;58.63;;;;;;;;;;5054899;28;20053;-63
2022/12/24 00:34:34;;;;;;;122.40;56.05;;;;;;;;;;5055155;28;20063;-62
2022/12/24 00:37:01;;;;;;;129.52;59.25;;;;;;;;;;5054878;28;20037;-62
2022/12/24 00:39:29;;;;;;;129.52;59.92;;;;;;;;;;5053658;28;20048;-62
2022/12/24 00:41:56;;;;;;;134.10;61.05;;;;;;;;;;5055056;28;20510;-62
2022/12/24 00:44:24;;;;;;;140.20;63.10;;;;;;;;;;5055015;28;20072;-62
2022/12/24 00:46:51;;;;;;;135.75;61.42;;;;;;;;;;5055211;28;20438;-62
2022/12/24 00:49:19;;;;;;;130.68;63.50;;;;;;;;;;5054837;28;20045;-62
2022/12/24 00:51:46;;;;;;;138.00;63.10;;;;;;;;;;5054684;28;20074;-62
2022/12/24 00:54:14;;;;;;;128.50;60.95;;;;;;;;;;5054746;28;20051;-62
2022/12/24 00:56:41;;;;;;;127.95;61.80;;;;;;;;;;5054902;28;20045;-62
2022/12/24 00:59:09;;;;;;;132.98;62.55;;;;;;;;;;5054666;28;20124;-62
2022/12/24 01:01:36;;;;;;;128.55;61.53;;;;;;;;;;5053136;28;20045;-62
2022/12/24 01:06:50;;;;;;;128.23;61.35;;;;;;;;;;5054321;28;20037;-62
2022/12/24 01:09:17;;;;;;;135.02;60.70;;;;;;;;;;5054390;28;20063;-62
2022/12/24 01:11:45;;;;;;;130.32;59.13;;;;;;;;;;5054319;28;20041;-62
2022/12/24 01:14:12;;;;;;;132.32;60.97;;;;;;;;;;5054585;28;20574;-62
2022/12/24 01:16:40;;;;;;;131.43;60.58;;;;;;;;;;5054565;28;20064;-62
2022/12/24 01:19:07;;;;;;;127.55;60.90;;;;;;;;;;5054134;28;20528;-62
2022/12/24 01:21:35;;;;;;;133.38;61.22;;;;;;;;;;5054148;28;20120;-62
2022/12/24 01:24:02;;;;;;;139.35;65.07;;;;;;;;;;5054108;28;20115;-62
2022/12/24 01:26:30;;;;;;;136.93;66.47;;;;;;;;;;5054093;28;20048;-62
2022/12/24 01:28:57;;;;;;;137.85;63.92;;;;;;;;;;5053943;28;20037;-63
2022/12/24 01:31:25;;;;;;;130.57;62.85;;;;;;;;;;5053722;28;20045;-62
2022/12/24 01:33:52;;;;;;;132.60;61.35;;;;;;;;;;5054026;28;20518;-63
2022/12/24 01:36:20;;;;;;;126.63;61.95;;;;;;;;;;5053448;28;20517;-62
2022/12/24 01:38:47;;;;;;;127.38;59.10;;;;;;;;;;5053963;28;20036;-62
2022/12/24 01:44:21;;;;;;;140.10;66.57;;;;;;;;;;5053670;28;20111;-62
2022/12/24 01:46:51;;;;;;;151.68;70.25;;;;;;;;;;5053839;28;20044;-62
2022/12/24 01:49:18;;;;;;;148.00;70.00;;;;;;;;;;5053712;28;20065;-62
2022/12/24 01:51:48;;;;;;;148.65;70.68;;;;;;;;;;5053543;28;20041;-62
2022/12/24 01:54:20;;;;;;;160.43;73.60;;;;;;;;;;5053469;28;20041;-63
2022/12/24 01:56:50;;;;;;;156.80;73.47;;;;;;;;;;5053382;28;20045;-63
2022/12/24 01:59:18;;;;;;;157.00;75.78;;;;;;;;;;5052293;28;20110;-62
2022/12/24 02:01:46;;;;;;;155.80;74.80;;;;;;;;;;5053355;28;20068;-62
2022/12/24 02:04:21;;;;;;;150.40;71.35;;;;;;;;;;5053368;28;20045;-62
2022/12/24 02:06:49;;;;;;;159.10;75.03;;;;;;;;;;5053586;28;20380;-62
2022/12/24 02:09:16;;;;;;;162.93;76.95;;;;;;;;;;5053125;28;20040;-62
2022/12/24 02:11:44;;;;;;;178.05;82.68;;;;;;;;;;5052973;28;20539;-62
2022/12/24 02:14:13;;;;;;;204.55;87.32;;;;;;;;;;5053152;28;20425;-62
2022/12/24 02:16:45;;;;;;;317.52;102.45;;;;;;;;;;5053148;28;20091;-62
2022/12/24 02:19:22;;;;;;;247.07;100.00;;;;;;;;;;5051802;28;20044;-63
2022/12/24 02:21:55;;;;;;;254.82;100.85;;;;;;;;;;5052996;28;20488;-63
2022/12/24 02:24:42;;;;;;;250.07;98.53;;;;;;;;;;5052808;28;20055;-63
2022/12/24 02:27:21;;;;;;;218.25;93.03;;;;;;;;;;5052965;28;20103;-62
2022/12/24 02:30:02;;;;;;;202.88;87.60;;;;;;;;;;5052916;28;20045;-63
2022/12/24 02:32:30;;;;;;;193.40;85.25;;;;;;;;;;5052981;28;20040;-63
2022/12/24 02:35:01;;;;;;;209.32;84.88;;;;;;;;;;5052865;28;20045;-62
2022/12/24 02:37:42;;;;;;;199.85;85.95;;;;;;;;;;5052819;28;20071;-63
2022/12/24 02:40:13;;;;;;;259.73;94.47;;;;;;;;;;5052803;28;20124;-63
2022/12/24 02:42:45;;;;;;;249.18;95.95;;;;;;;;;;5052730;28;20052;-63
2022/12/24 02:45:30;;;;;;;306.15;89.90;;;;;;;;;;5051600;28;20041;-62
2022/12/24 02:47:58;;;;;;;289.50;88.20;;;;;;;;;;5052135;28;20135;-63
2022/12/24 02:50:26;;;;;;;275.52;93.50;;;;;;;;;;5052675;28;20270;-63
2022/12/24 02:52:54;;;;;;;239.05;84.20;;;;;;;;;;5052531;28;20052;-63
2022/12/24 02:55:30;;;;;;;231.13;65.13;;;;;;;;;;5052498;28;20068;-63
2022/12/24 02:58:09;;;;;;;198.73;50.92;;;;;;;;;;5052541;28;20041;-63
2022/12/24 03:00:46;;;;;;;189.70;52.05;;;;;;;;;;5052527;28;20083;-63
2022/12/24 03:03:32;;;;;;;208.02;53.30;;;;;;;;;;5052659;28;20448;-63
2022/12/24 03:05:59;;;;;;;;;;;;;;;;;;5053159;28;20044;-63
2022/12/24 03:08:32;;;;;;;226.88;69.25;;;;;;;;;;5051206;28;19964;-63
2022/12/24 03:11:09;;;;;;;214.30;65.32;;;;;;;;;;5051244;28;20132;-63
2022/12/24 03:13:37;;;;;;;169.50;49.53;;;;;;;;;;5052420;28;20041;-63
2022/12/24 03:16:06;;;;;;;141.68;45.83;;;;;;;;;;5052350;28;20426;-63
2022/12/24 03:18:36;;;;;;;226.32;64.70;;;;;;;;;;5052317;28;20136;-63
2022/12/24 03:21:24;;;;;;;218.02;61.75;;;;;;;;;;5052471;28;20048;-63
2022/12/24 03:23:51;;;;;;;200.60;63.47;;;;;;;;;;5052287;28;20043;-63
2022/12/24 03:26:19;;;;;;;196.32;59.20;;;;;;;;;;5052253;28;20041;-63
2022/12/24 03:28:47;;;;;;;158.82;57.80;;;;;;;;;;5052349;28;20072;-63
2022/12/24 03:31:15;;;;;;;149.82;60.05;;;;;;;;;;5051958;28;20573;-63
2022/12/24 03:33:43;;;;;;;133.82;47.67;;;;;;;;;;5052125;28;20099;-63
2022/12/24 03:36:11;;;;;;;160.27;59.85;;;;;;;;;;5050644;28;20034;-63
2022/12/24 03:38:38;;;;;;;153.10;58.10;;;;;;;;;;5052529;28;20129;-63
2022/12/24 03:41:07;;;;;;;174.63;59.22;;;;;;;;;;5052147;28;20040;-63
2022/12/24 03:43:35;;;;;;;201.90;59.10;;;;;;;;;;5052053;28;20124;-63
2022/12/24 03:46:06;;;;;;;200.40;61.85;;;;;;;;;;5052049;28;20044;-63
2022/12/24 03:48:34;;;;;;;205.88;58.10;;;;;;;;;;5052058;28;20041;-63
2022/12/24 03:51:02;;;;;;;205.23;60.33;;;;;;;;;;5052016;28;20439;-63
2022/12/24 03:53:29;;;;;;;221.57;62.08;;;;;;;;;;5050758;28;20041;-63
2022/12/24 03:55:57;;;;;;;210.38;63.50;;;;;;;;;;5050703;28;20037;-63
2022/12/24 03:58:24;;;;;;;200.20;62.30;;;;;;;;;;5053623;28;20102;-63
2022/12/24 04:00:53;;;;;;;210.52;65.63;;;;;;;;;;5055666;28;20047;-63
2022/12/24 04:03:20;;;;;;;219.55;65.60;;;;;;;;;;5055547;28;20086;-63
2022/12/24 04:05:48;;;;;;;176.43;66.03;;;;;;;;;;5055806;28;20090;-63
2022/12/24 04:08:15;;;;;;;217.55;77.80;;;;;;;;;;5055438;28;20045;-63
2022/12/24 04:10:42;;;;;;;218.15;81.13;;;;;;;;;;5055573;28;20430;-63
2022/12/24 04:13:10;;;;;;;217.27;81.30;;;;;;;;;;5055547;28;20049;-63
2022/12/24 04:15:37;;;;;;;215.68;82.43;;;;;;;;;;5055383;28;20107;-63
2022/12/24 04:18:05;;;;;;;252.32;83.00;;;;;;;;;;5055431;28;20052;-63
2022/12/24 04:20:32;;;;;;;205.13;79.05;;;;;;;;;;5055353;28;20037;-63
2022/12/24 04:23:00;;;;;;;214.13;75.90;;;;;;;;;;5055343;28;20095;-63
2022/12/24 04:25:27;;;;;;;200.25;73.82;;;;;;;;;;5054101;28;20048;-63
2022/12/24 04:27:54;;;;;;;192.30;75.57;;;;;;;;;;5055188;28;20047;-63
2022/12/24 04:30:22;;;;;;;188.65;68.90;;;;;;;;;;5054950;28;20053;-63
2022/12/24 04:32:49;;;;;;;226.52;64.20;;;;;;;;;;5055030;28;20368;-63
2022/12/24 04:35:17;;;;;;;201.85;59.08;;;;;;;;;;5055407;28;20098;-63
2022/12/24 04:37:44;;;;;;;181.25;51.38;;;;;;;;;;5055228;28;20037;-63
2022/12/24 04:40:12;;;;;;;159.85;49.30;;;;;;;;;;5053863;28;20561;-63
2022/12/24 04:42:39;;;;;;;185.57;48.28;;;;;;;;;;5055019;28;20047;-63
2022/12/24 04:45:07;;;;;;;174.38;49.05;;;;;;;;;;5054582;28;20045;-63
2022/12/24 04:47:34;;;;;;;153.82;45.58;;;;;;;;;;5054977;28;20136;-63
2022/12/24 04:50:02;;;;;;;163.85;44.90;;;;;;;;;;5054746;28;20045;-63
2022/12/24 04:52:29;;;;;;;147.35;45.47;;;;;;;;;;5054672;28;20053;-63
2022/12/24 04:54:56;;;;;;;192.90;45.03;;;;;;;;;;5054635;28;20441;-63
2022/12/24 04:57:24;;;;;;;152.95;43.85;;;;;;;;;;5053408;28;20551;-62
2022/12/24 04:59:51;;;;;;;152.80;44.28;;;;;;;;;;5054558;28;20045;-62
2022/12/24 05:02:19;;;;;;;142.02;43.05;;;;;;;;;;5054619;28;20043;-63
2022/12/24 05:04:46;;;;;;;138.68;44.42;;;;;;;;;;5054666;28;20041;-63
2022/12/24 05:07:14;;;;;;;157.23;47.95;;;;;;;;;;5054568;28;20906;-63
2022/12/24 05:09:41;;;;;;;138.38;45.30;;;;;;;;;;5053485;28;20041;-63
2022/12/24 05:12:09;;;;;;;148.75;45.42;;;;;;;;;;5054631;28;20067;-63
2022/12/24 05:14:36;;;;;;;215.13;50.03;;;;;;;;;;5054215;28;20090;-63
2022/12/24 05:17:04;;;;;;;131.23;43.08;;;;;;;;;;5054308;28;20127;-62
2022/12/24 05:19:32;;;;;;;157.55;41.28;;;;;;;;;;5054343;28;20491;-63
2022/12/24 05:27:31;;;;;;;158.65;37.60;;;;;;;;;;5053947;28;20102;-62
2022/12/24 05:29:59;;;;;;;182.55;41.63;;;;;;;;;;5053876;28;20048;-62
2022/12/24 05:32:27;;;;;;;150.75;38.95;;;;;;;;;;5053898;28;20041;-63
2022/12/24 05:34:55;;;;;;;194.65;38.47;;;;;;;;;;5053919;28;20033;-63
2022/12/24 05:37:22;;;;;;;187.10;38.60;;;;;;;;;;5053947;28;20152;-63
2022/12/24 05:39:50;;;;;;;193.57;38.30;;;;;;;;;;5052590;28;20044;-63
2022/12/24 05:42:17;;;;;;;228.20;40.00;;;;;;;;;;5053767;28;20102;-62
2022/12/24 05:44:44;;;;;;;208.48;39.42;;;;;;;;;;5053734;28;20037;-62
2022/12/24 05:47:12;;;;;;;185.43;40.97;;;;;;;;;;5053586;28;20041;-63
2022/12/24 05:49:39;;;;;;;135.70;36.70;;;;;;;;;;5053627;28;20045;-63
2022/12/24 05:52:07;;;;;;;173.75;41.45;;;;;;;;;;5053564;28;20124;-62
2022/12/24 05:54:34;;;;;;;160.02;39.30;;;;;;;;;;5053460;28;20490;-63
2022/12/24 05:57:02;;;;;;;171.98;40.05;;;;;;;;;;5052099;28;20570;-62
2022/12/24 05:59:29;;;;;;;139.30;38.40;;;;;;;;;;5053334;28;20076;-63
2022/12/24 06:01:56;;;;;;;155.10;36.50;;;;;;;;;;5053233;28;20128;-63
2022/12/24 06:04:24;;;;;;;126.90;37.55;;;;;;;;;;5053262;28;20076;-62
2022/12/24 06:06:55;;;;;;;133.25;40.20;;;;;;;;;;5053265;28;20521;-63
2022/12/24 06:09:23;;;;;;;160.85;41.65;;;;;;;;;;5053054;28;20048;-63
2022/12/24 06:11:50;;;;;;;124.85;41.80;;;;;;;;;;5053485;28;20041;-63
2022/12/24 06:14:18;;;;;;;121.22;41.20;;;;;;;;;;5053097;28;20045;-63
2022/12/24 06:16:45;;;;;;;112.93;40.97;;;;;;;;;;5053055;28;20040;-63
2022/12/24 06:19:13;;;;;;;114.47;42.60;;;;;;;;;;5052727;28;20037;-63
2022/12/24 06:21:40;;;;;;;129.70;42.97;;;;;;;;;;5052962;28;20044;-63
2022/12/24 06:24:07;;;;;;;98.32;43.63;;;;;;;;;;5052887;28;20041;-63
2022/12/24 06:26:35;;;;;;;111.07;46.10;;;;;;;;;;5052798;28;20044;-63
2022/12/24 06:29:02;;;;;;;107.10;45.47;;;;;;;;;;5052931;28;20099;-63
2022/12/24 06:31:30;;;;;;;101.32;45.53;;;;;;;;;;5052462;28;20045;-63
2022/12/24 06:33:57;;;;;;;100.13;44.90;;;;;;;;;;5052803;28;20045;-64
2022/12/24 06:36:25;;;;;;;102.30;44.95;;;;;;;;;;5052269;28;20037;-64
2022/12/24 06:38:54;;;;;;;111.63;48.85;;;;;;;;;;5052741;28;20044;-64
2022/12/24 06:41:22;;;;;;;123.95;47.75;;;;;;;;;;5052558;28;20145;-64
2022/12/24 06:43:50;;;;;;;119.22;53.53;;;;;;;;;;5052587;28;20040;-64
2022/12/24 06:46:18;;;;;;;130.38;53.92;;;;;;;;;;5052527;28;20091;-64
2022/12/24 06:48:46;;;;;;;134.65;55.80;;;;;;;;;;5052561;28;20074;-65
2022/12/24 06:51:15;;;;;;;137.55;58.13;;;;;;;;;;5052613;28;20048;-64
2022/12/24 06:53:42;;;;;;;144.35;57.92;;;;;;;;;;5052292;28;20037;-64
2022/12/24 06:56:11;;;;;;;127.45;54.60;;;;;;;;;;5052590;28;20067;-64
2022/12/24 06:58:39;;;;;;;131.90;61.47;;;;;;;;;;5052427;28;20079;-64
2022/12/24 07:01:07;;;;;;;144.48;63.05;;;;;;;;;;5052237;28;20466;-64
2022/12/24 07:03:35;;;;;;;127.03;58.53;;;;;;;;;;5052347;28;20059;-64
2022/12/24 07:06:03;;;;;;;125.90;53.08;;;;;;;;;;5052934;28;20047;-63
2022/12/24 07:08:35;;;;;;;143.32;50.22;;;;;;;;;;5051821;28;20053;-64
2022/12/24 07:11:03;;;;;;;105.18;47.60;;;;;;;;;;5052334;28;20041;-62
2022/12/24 07:13:31;;;;;;;103.70;47.58;;;;;;;;;;5052290;28;20041;-62
2022/12/24 07:16:00;;;;;;;101.15;47.60;;;;;;;;;;5052216;28;20487;-62
2022/12/24 07:18:28;;;;;;;107.57;47.83;;;;;;;;;;5052327;28;20041;-63
2022/12/24 07:20:55;;;;;;;96.68;48.80;;;;;;;;;;5056767;28;20033;-64
2022/12/24 07:23:23;;;;;;;108.10;49.00;;;;;;;;;;5062578;28;21241;-64
2022/12/24 07:25:50;;;;;;;98.88;47.75;;;;;;;;;;5051957;28;20037;-64
2022/12/24 07:28:18;;;;;;;101.22;50.25;;;;;;;;;;5052219;28;20037;-64
2022/12/24 07:30:54;;;;;;;98.88;48.83;;;;;;;;;;5051950;28;20045;-65
2022/12/24 07:33:21;;;;;;;97.30;48.58;;;;;;;;;;5053782;28;20064;-63
2022/12/24 07:35:49;;;;;;;97.78;48.67;;;;;;;;;;5055777;28;20041;-64
2022/12/24 07:38:22;;;;;;;94.03;47.72;;;;;;;;;;5056190;28;20037;-64
2022/12/24 07:40:49;;;;;;;100.47;48.92;;;;;;;;;;5056262;28;20091;-64
2022/12/24 07:43:17;;;;;;;100.95;49.67;;;;;;;;;;5055960;28;20116;-64
2022/12/24 07:45:44;;;;;;;97.28;48.10;;;;;;;;;;5055930;28;20040;-63
2022/12/24 07:48:12;;;;;;;94.18;46.25;;;;;;;;;;5056252;28;20136;-64
2022/12/24 07:50:39;;;;;;;93.65;47.08;;;;;;;;;;5056150;28;20045;-64
2022/12/24 07:53:06;;;;;;;95.00;47.65;;;;;;;;;;5069799;28;20045;-64
2022/12/24 07:55:35;;;;;;;98.00;48.22;;;;;;;;;;5075583;28;20485;-64
2022/12/24 07:58:02;;;;;;;96.50;46.63;;;;;;;;;;5075707;28;20033;-63
2022/12/24 08:00:30;;;;;;;111.50;56.22;;;;;;;;;;5075591;28;20437;-64
2022/12/24 08:02:58;;;;;;;100.82;49.42;;;;;;;;;;5075738;28;20037;-63
2022/12/24 08:05:27;;;;;;;108.07;51.75;;;;;;;;;;5075710;28;20417;-63
2022/12/24 08:07:55;;;;;;;102.30;51.28;;;;;;;;;;5075659;28;20051;-64
2022/12/24 08:10:22;;;;;;;108.68;51.58;;;;;;;;;;5075659;28;20068;-64
2022/12/24 08:12:50;;;;;;;104.93;53.63;;;;;;;;;;5075425;28;20044;-64
2022/12/24 08:15:17;;;;;;;106.07;51.67;;;;;;;;;;5075397;28;20043;-64
2022/12/24 08:17:45;;;;;;;103.43;52.28;;;;;;;;;;5075381;28;20086;-64
2022/12/24 08:20:12;;;;;;;98.18;50.17;;;;;;;;;;5075547;28;20130;-64
2022/12/24 08:22:40;;;;;;;98.95;52.20;;;;;;;;;;5075312;28;20045;-64
2022/12/24 08:25:07;;;;;;;97.65;49.35;;;;;;;;;;5075446;28;20037;-64
2022/12/24 08:27:35;;;;;;;99.53;51.47;;;;;;;;;;5075213;28;20106;-65
2022/12/24 08:30:03;;;;;;;95.60;50.85;;;;;;;;;;5074968;28;20036;-65
2022/12/24 08:32:31;;;;;;;92.15;49.97;;;;;;;;;;5075073;28;20049;-65
2022/12/24 08:34:58;;;;;;;91.13;51.55;;;;;;;;;;5074997;28;20038;-65
2022/12/24 08:37:26;;;;;;;92.90;50.33;;;;;;;;;;5075034;28;20037;-64
2022/12/24 08:39:53;;;;;;;95.97;50.03;;;;;;;;;;5074905;28;20043;-61
2022/12/24 08:42:21;;;;;;;95.55;50.35;;;;;;;;;;5075049;28;20044;-61
2022/12/24 08:44:48;;;;;;;94.90;48.78;;;;;;;;;;5073494;28;20048;-61
2022/12/24 08:47:15;;;;;;;100.45;48.85;;;;;;;;;;5074628;28;20048;-61
2022/12/24 08:49:43;;;;;;;100.78;51.92;;;;;;;;;;5074626;28;20485;-60
2022/12/24 08:52:10;;;;;;;94.20;50.65;;;;;;;;;;5074753;28;20111;-60
2022/12/24 08:54:38;;;;;;;97.00;51.45;;;;;;;;;;5072642;28;20052;-62
2022/12/24 08:57:06;;;;;;;104.65;54.45;;;;;;;;;;5054321;28;20068;-61
2022/12/24 08:59:34;;;;;;;106.30;55.15;;;;;;;;;;5054329;28;20503;-61
2022/12/24 09:02:01;;;;;;;100.25;57.22;;;;;;;;;;5054613;28;20051;-60
2022/12/24 09:04:29;;;;;;;99.55;55.90;;;;;;;;;;5054190;28;20047;-62
2022/12/24 09:06:56;;;;;;;104.50;57.55;;;;;;;;;;5054372;28;20095;-62
2022/12/24 09:09:24;;;;;;;107.95;58.60;;;;;;;;;;5054105;28;20055;-62
2022/12/24 09:11:52;;;;;;;100.68;58.58;;;;;;;;;;5053954;28;20067;-62
2022/12/24 09:14:19;;;;;;;103.05;57.55;;;;;;;;;;5053840;28;20037;-62
2022/12/24 09:16:47;;;;;;;102.13;59.63;;;;;;;;;;5054101;28;20091;-62
2022/12/24 09:19:15;;;;;;;113.10;61.05;;;;;;;;;;5053616;28;20037;-61
2022/12/24 09:21:42;;;;;;;108.85;61.25;;;;;;;;;;5054370;28;20041;-62
2022/12/24 09:24:09;;;;;;;106.22;63.45;;;;;;;;;;5036349;28;20149;-62
2022/12/24 09:26:37;;;;;;;102.97;59.33;;;;;;;;;;5054185;28;20485;-62
2022/12/24 09:29:05;;;;;;;97.55;57.70;;;;;;;;;;5054087;28;20045;-62
2022/12/24 09:31:32;;;;;;;98.88;57.50;;;;;;;;;;5053664;28;20045;-62
2022/12/24 09:34:00;;;;;;;99.95;59.28;;;;;;;;;;5054145;28;20428;-62
2022/12/24 09:36:27;;;;;;;100.10;56.60;;;;;;;;;;5053778;28;20048;-65
2022/12/24 09:38:55;;;;;;;96.47;58.65;;;;;;;;;;5053874;28;20033;-66
2022/12/24 09:41:22;;;;;;;107.40;59.63;;;;;;;;;;5053548;28;20564;-66
2022/12/24 09:43:56;;;;;;;97.63;58.25;;;;;;;;;;5052500;28;20391;-66
2022/12/24 09:46:30;;;;;;;104.32;61.45;;;;;;;;;;5053134;28;20036;-67
2022/12/24 09:49:01;;;;;;;104.93;60.33;;;;;;;;;;5053333;28;20040;-67
2022/12/24 09:51:33;;;;;;;101.72;58.97;;;;;;;;;;5053290;28;20124;-66
2022/12/24 09:54:07;;;;;;;95.97;55.35;;;;;;;;;;5053341;28;20493;-66
2022/12/24 09:56:43;;;;;;;90.28;53.28;;;;;;;;;;5050909;28;20431;-66
2022/12/24 09:59:14;;;;;;;99.80;55.05;;;;;;;;;;5052370;28;20029;-66
2022/12/24 10:01:42;;;;;;;101.32;54.97;;;;;;;;;;5052885;28;20132;-68
2022/12/24 10:04:14;;;;;;;97.40;54.65;;;;;;;;;;5051985;28;20084;-67
2022/12/24 10:07:02;;;;;;;90.47;54.53;;;;;;;;;;5053394;28;20041;-68
2022/12/24 10:09:47;;;;;;;94.97;56.05;;;;;;;;;;5053275;28;20508;-67
2022/12/24 10:12:21;;;;;;;97.90;56.83;;;;;;;;;;5053227;28;20049;-68
2022/12/24 10:14:51;;;;;;;93.47;55.13;;;;;;;;;;5052802;28;20033;-66
2022/12/24 10:17:31;;;;;;;102.35;56.63;;;;;;;;;;5053224;28;20052;-66
2022/12/24 10:20:07;;;;;;;91.82;55.70;;;;;;;;;;5053138;28;20075;-65
2022/12/24 10:22:38;;;;;;;95.22;56.95;;;;;;;;;;5052281;28;20041;-65
2022/12/24 10:25:12;;;;;;;99.97;58.60;;;;;;;;;;5052260;28;20068;-64
2022/12/24 10:27:39;;;;;;;90.40;54.72;;;;;;;;;;5050256;28;20676;-64
2022/12/24 10:30:18;;;;;;;90.38;54.85;;;;;;;;;;5052481;28;20045;-65
2022/12/24 10:32:47;;;;;;;91.35;53.47;;;;;;;;;;5052368;28;20051;-65
2022/12/24 10:35:15;;;;;;;91.75;54.22;;;;;;;;;;5053037;28;20044;-64
2022/12/24 10:37:45;;;;;;;92.53;53.80;;;;;;;;;;5052435;28;20041;-65
2022/12/24 10:40:27;;;;;;;95.28;55.85;;;;;;;;;;5052445;28;20115;-65
2022/12/24 10:42:55;;;;;;;86.85;53.47;;;;;;;;;;5050857;28;20041;-66
2022/12/24 10:45:25;;;;;;;90.20;53.67;;;;;;;;;;5048823;28;20037;-65
2022/12/24 10:47:55;;;;;;;85.85;51.53;;;;;;;;;;5052266;28;20491;-65
2022/12/24 10:50:35;;;;;;;83.07;51.53;;;;;;;;;;5051364;28;20037;-65
2022/12/24 10:53:14;;;;;;;87.80;52.50;;;;;;;;;;5051894;28;20111;-65
2022/12/24 10:55:42;;;;;;;90.05;53.90;;;;;;;;;;5052374;28;20072;-65
2022/12/24 10:58:15;;;;;;;94.43;58.70;;;;;;;;;;5052424;28;20036;-66
2022/12/24 11:00:49;;;;;;;86.85;52.90;;;;;;;;;;5052355;28;20088;-65
2022/12/24 11:03:33;;;;;;;78.03;48.83;;;;;;;;;;5052464;28;20037;-65
2022/12/24 11:06:01;;;;;;;74.78;48.97;;;;;;;;;;5052390;28;20045;-64
2022/12/24 11:08:28;;;;;;;77.55;48.28;;;;;;;;;;5051900;28;20410;-65
2022/12/24 11:11:04;;;;;;;78.30;49.25;;;;;;;;;;5052455;28;20045;-66
2022/12/24 11:13:52;;;;;;;80.95;50.95;;;;;;;;;;5052505;28;20483;-67
2022/12/24 11:16:36;;;;;;;74.70;48.28;;;;;;;;;;5052107;28;20498;-66
2022/12/24 11:19:05;;;;;;;81.93;50.15;;;;;;;;;;5052073;28;20056;-65
2022/12/24 11:21:34;;;;;;;85.07;51.78;;;;;;;;;;5052468;28;20083;-66
2022/12/24 11:24:24;;;;;;;88.78;52.53;;;;;;;;;;5051429;28;20103;-66
2022/12/24 11:26:52;;;;;;;85.90;53.60;;;;;;;;;;5052305;28;20045;-66
2022/12/24 11:29:23;;;;;;;91.40;57.20;;;;;;;;;;5051824;28;20041;-66
2022/12/24 11:31:51;;;;;;;89.82;53.67;;;;;;;;;;5051579;28;20419;-64
2022/12/24 11:34:27;;;;;;;84.72;52.72;;;;;;;;;;5051756;28;20041;-64
2022/12/24 11:36:54;;;;;;;;;;;;;;;;;;5052063;28;20061;-63
2022/12/24 11:39:25;;;;;;;95.90;55.38;;;;;;;;;;5051821;28;20428;-62
2022/12/24 11:41:53;;;;;;;88.28;53.05;;;;;;;;;;5051622;28;20049;-62
2022/12/24 11:44:26;;;;;;;86.07;52.40;;;;;;;;;;5051582;28;20048;-62
2022/12/24 11:46:58;;;;;;;108.35;61.50;;;;;;;;;;5050636;28;20099;-62
2022/12/24 11:49:30;;;;;;;92.07;55.88;;;;;;;;;;5050777;28;20052;-65
2022/12/24 11:52:02;;;;;;;97.30;61.60;;;;;;;;;;5051370;28;20040;-64
2022/12/24 11:54:33;;;;;;;93.45;55.80;;;;;;;;;;5051469;28;20566;-64
2022/12/24 11:57:01;;;;;;;96.30;58.53;;;;;;;;;;5051838;28;20045;-65
2022/12/24 11:59:33;;;;;;;88.18;53.95;;;;;;;;;;5051819;28;20098;-64
2022/12/24 12:02:19;;;;;;;88.53;56.08;;;;;;;;;;5051699;28;20051;-65
2022/12/24 12:04:51;;;;;;;88.53;54.17;;;;;;;;;;5051532;28;20116;-64
2022/12/24 12:07:22;;;;;;;90.50;56.75;;;;;;;;;;5051889;28;20115;-65
2022/12/24 12:09:56;;;;;;;89.18;56.30;;;;;;;;;;5051862;28;20124;-64
2022/12/24 12:12:25;;;;;;;94.50;58.33;;;;;;;;;;5051661;28;20040;-64
2022/12/24 12:15:12;;;;;;;77.95;50.72;;;;;;;;;;5051562;28;20045;-64
2022/12/24 12:17:43;;;;;;;79.90;51.55;;;;;;;;;;5051429;28;20049;-64
2022/12/24 12:20:18;;;;;;;76.75;48.42;;;;;;;;;;5054477;28;20049;-65
2022/12/24 12:22:55;;;;;;;78.35;49.53;;;;;;;;;;5055363;28;20120;-66
2022/12/24 12:25:43;;;;;;;71.18;45.90;;;;;;;;;;5055221;28;20487;-65
2022/12/24 12:28:20;;;;;;;71.10;45.22;;;;;;;;;;5055167;28;20045;-66
2022/12/24 12:30:53;;;;;;;72.82;45.95;;;;;;;;;;5054611;28;20086;-66
2022/12/24 12:33:28;;;;;;;67.07;42.90;;;;;;;;;;5054758;28;20120;-67
2022/12/24 12:35:56;;;;;;;78.72;49.28;;;;;;;;;;5054497;28;20079;-66
2022/12/24 12:38:25;;;;;;;75.50;48.05;;;;;;;;;;5053633;28;20457;-66
2022/12/24 12:41:01;;;;;;;74.00;47.13;;;;;;;;;;5054980;28;20045;-66
2022/12/24 12:43:41;;;;;;;91.45;55.47;;;;;;;;;;5054863;28;20055;-66
2022/12/24 12:46:31;;;;;;;86.65;52.38;;;;;;;;;;5054979;28;20434;-66
2022/12/24 12:49:05;;;;;;;79.20;47.90;;;;;;;;;;5055021;28;20048;-66
2022/12/24 12:51:37;;;;;;;91.25;54.10;;;;;;;;;;5054686;28;20044;-66
2022/12/24 12:54:16;;;;;;;85.28;51.70;;;;;;;;;;5054501;28;20103;-65
2022/12/24 12:56:46;;;;;;;77.85;45.30;;;;;;;;;;5054675;28;20056;-70
2022/12/24 12:59:25;;;;;;;95.57;57.70;;;;;;;;;;5054635;28;20127;-70
2022/12/24 13:02:11;;;;;;;77.25;47.78;;;;;;;;;;5054637;28;20052;-65
2022/12/24 13:04:57;;;;;;;140.35;72.95;;;;;;;;;;5056620;28;20068;-66
2022/12/24 13:07:31;;;;;;;157.98;77.43;;;;;;;;;;5062000;28;20487;-65
2022/12/24 13:10:10;;;;;;;77.15;43.00;;;;;;;;;;5060477;28;20060;-65
2022/12/24 13:12:40;;;;;;;59.08;34.28;;;;;;;;;;5062702;28;20495;-66
2022/12/24 13:15:08;;;;;;;51.65;30.65;;;;;;;;;;5063311;28;20109;-64
2022/12/24 13:17:41;;;;;;;57.05;35.17;;;;;;;;;;5058638;28;20095;-68
2022/12/24 13:20:24;;;;;;;154.55;88.90;;;;;;;;;;5074073;28;20090;-67
2022/12/24 13:23:11;;;;;;;90.30;53.95;;;;;;;;;;5073997;28;20551;-67
2022/12/24 13:25:42;;;;;;;99.88;55.60;;;;;;;;;;5073203;28;20620;-68
2022/12/24 13:28:22;;;;;;;92.07;53.28;;;;;;;;;;5073465;28;20047;-68
2022/12/24 13:30:52;;;;;;;70.63;43.00;;;;;;;;;;5072929;28;20406;-68
2022/12/24 13:33:38;;;;;;;78.97;47.47;;;;;;;;;;5072275;28;20044;-67
2022/12/24 13:36:07;;;;;;;60.47;38.60;;;;;;;;;;5064721;28;20083;-67
2022/12/24 13:38:46;;;;;;;65.00;40.75;;;;;;;;;;5053511;28;20487;-67
2022/12/24 13:41:39;;;;;;;133.65;78.13;;;;;;;;;;5053480;28;20071;-67
2022/12/24 13:44:09;;;;;;;146.32;87.30;;;;;;;;;;5053187;28;20037;-64
2022/12/24 13:46:55;;;;;;;111.80;69.20;;;;;;;;;;5053334;28;20037;-63
2022/12/24 13:49:32;;;;;;;51.90;33.08;;;;;;;;;;5052201;28;20064;-66
2022/12/24 13:52:05;;;;;;;53.50;35.10;;;;;;;;;;5053091;28;20036;-64
2022/12/24 13:54:33;;;;;;;51.17;32.08;;;;;;;;;;5056613;28;20501;-63
2022/12/24 13:57:01;;;;;;;85.95;45.78;;;;;;;;;;5062777;28;20040;-63
2022/12/24 13:59:37;;;;;;;91.72;51.00;;;;;;;;;;5066826;28;20393;-64
2022/12/24 14:02:11;;;;;;;53.92;32.25;;;;;;;;;;5073689;28;20086;-64
2022/12/24 14:04:41;;;;;;;206.32;113.55;;;;;;;;;;5073428;28;20036;-65
2022/12/24 14:07:10;;;;;;;115.75;65.18;;;;;;;;;;5073161;28;20037;-64
2022/12/24 14:09:37;;;;;;;158.20;93.75;;;;;;;;;;5073239;28;20036;-65
2022/12/24 14:12:05;;;;;;;106.05;66.68;;;;;;;;;;5065721;28;20037;-66
2022/12/24 14:14:33;;;;;;;59.10;37.90;;;;;;;;;;5052397;28;20103;-65
2022/12/24 14:17:02;;;;;;;37.05;25.33;;;;;;;;;;5052233;28;20037;-65
2022/12/24 14:19:40;;;;;;;33.50;23.67;;;;;;;;;;5069021;28;20037;-63
2022/12/24 14:22:22;;;;;;;33.00;21.40;;;;;;;;;;5032921;28;20045;-66
2022/12/24 14:24:53;;;;;;;27.02;18.58;;;;;;;;;;5032937;28;20041;-68
2022/12/24 14:27:40;;;;;;;25.83;19.70;;;;;;;;;;5051380;28;20037;-68
2022/12/24 14:30:17;;;;;;;28.98;18.50;;;;;;;;;;5052081;28;20127;-68
2022/12/24 14:32:45;;;;;;;32.42;20.80;;;;;;;;;;5052813;28;20446;-68
2022/12/24 14:35:13;;;;;;;27.52;17.70;;;;;;;;;;5052536;28;20364;-68
2022/12/24 14:37:42;;;;;;;33.42;22.02;;;;;;;;;;5052761;28;20105;-68